| time (UTC) | temp F | wind direction | speed MPH | gust MPH | rain 1hr in | rain 24hr in | rain mn in | humidity % | barometer mb |
| 20260507050109 | 42 | 5 | 2.0 | 6.0 | 0.00 | 0.00 | 0.00 | 90 | 1013.1 |
| 20260507044558 | 42 | 351 | 3.0 | 5.0 | 0.00 | 0.00 | 0.00 | 90 | 1012.9 |
| 20260507043054 | 42 | 327 | 2.0 | 4.0 | 0.00 | 0.00 | 0.00 | 90 | 1012.8 |
| 20260507041551 | 42 | 332 | 1.0 | 6.0 | 0.00 | 0.00 | 0.00 | 90 | 1012.7 |
| 20260507040050 | 42 | 351 | 1.0 | 4.0 | 0.00 | 0.00 | 0.00 | 90 | 1012.6 |
| 20260507034548 | 42 | 350 | 2.0 | 4.0 | 0.00 | 0.00 | 0.00 | 91 | 1012.4 |
| 20260507033048 | 42 | 355 | 1.0 | 5.0 | 0.00 | 0.00 | 0.00 | 91 | 1012.3 |
| 20260507031545 | 42 | 339 | 2.0 | 5.0 | 0.00 | 0.00 | 0.00 | 91 | 1012.3 |
| 20260507030045 | 42 | 349 | 2.0 | 4.0 | 0.00 | 0.00 | 0.00 | 91 | 1012.3 |
| 20260507024547 | 42 | 351 | 2.0 | 4.0 | 0.00 | 0.00 | 0.00 | 91 | 1012.2 |
| 20260507023041 | 42 | 355 | 1.0 | 3.0 | 0.00 | 0.00 | 0.00 | 90 | 1012.3 |
| 20260507021553 | 42 | 355 | 2.0 | 4.0 | 0.00 | 0.00 | 0.00 | 91 | 1012.2 |
| 20260507020038 | 42 | 355 | 1.0 | 6.0 | 0.00 | 0.00 | 0.00 | 90 | 1012.0 |
| 20260507014536 | 43 | 345 | 1.0 | 4.0 | 0.00 | 0.00 | 0.00 | 90 | 1011.9 |
| 20260507013037 | 43 | 318 | 2.0 | 5.0 | 0.00 | 0.00 | 0.00 | 90 | 1011.9 |
| 20260507011537 | 43 | 330 | 2.0 | 5.0 | 0.00 | 0.00 | 0.00 | 89 | 1012.0 |
| 20260507010041 | 43 | 348 | 2.0 | 4.0 | 0.00 | 0.00 | 0.00 | 89 | 1011.8 |
| 20260507004531 | 43 | 334 | 3.0 | 6.0 | 0.00 | 0.00 | 0.00 | 89 | 1011.8 |
| 20260507003031 | 43 | 348 | 1.0 | 3.0 | 0.00 | 0.00 | 0.00 | 89 | 1011.8 |
| 20260507001533 | 43 | 348 | 2.0 | 4.0 | 0.00 | 0.00 | 0.00 | 89 | 1011.8 |
| 20260507000033 | 43 | 346 | 2.0 | 5.0 | 0.00 | 0.00 | 0.00 | 89 | 1011.9 |
| 20260506234528 | 43 | 336 | 2.0 | 4.0 | 0.00 | 0.00 | 0.00 | 89 | 1011.9 |
| 20260506233027 | 44 | 339 | 2.0 | 4.0 | 0.00 | 0.00 | 0.00 | 89 | 1011.9 |
| 20260506231527 | 44 | 348 | 2.0 | 5.0 | 0.00 | 0.00 | 0.00 | 89 | 1011.9 |
| 20260506230024 | 45 | 355 | 2.0 | 3.0 | 0.00 | 0.00 | 0.00 | 88 | 1012.0 |
| 20260506224521 | 45 | 355 | 1.0 | 3.0 | 0.00 | 0.00 | 0.00 | 88 | 1011.8 |
| 20260506223019 | 45 | 355 | 1.0 | 3.0 | 0.00 | 0.00 | 0.00 | 87 | 1011.8 |
| 20260506221516 | 46 | 355 | 1.0 | 4.0 | 0.00 | 0.00 | 0.00 | 86 | 1011.7 |
| 20260506220022 | 47 | 5 | 1.0 | 3.0 | 0.00 | 0.00 | 0.00 | 86 | 1011.7 |
| 20260506214511 | 47 | 5 | 1.0 | 4.0 | 0.00 | 0.00 | 0.00 | 84 | 1011.6 |
| 20260506213009 | 48 | 18 | 4.0 | 8.0 | 0.00 | 0.00 | 0.00 | 83 | 1011.5 |
| 20260506211505 | 48 | 355 | 4.0 | 10.0 | 0.00 | 0.00 | 0.00 | 82 | 1011.5 |
| 20260506210003 | 49 | 5 | 5.0 | 10.0 | 0.00 | 0.00 | 0.00 | 81 | 1011.2 |
| 20260506204503 | 49 | 20 | 5.0 | 9.0 | 0.00 | 0.00 | 0.00 | 80 | 1011.2 |
| 20260506203003 | 50 | 17 | 3.0 | 8.0 | 0.00 | 0.00 | 0.00 | 78 | 1011.1 |
| 20260506201600 | 50 | 19 | 5.0 | 11.0 | 0.00 | 0.00 | 0.00 | 77 | 1011.0 |
| 20260506200111 | 51 | 23 | 5.0 | 9.0 | 0.00 | 0.00 | 0.00 | 75 | 1010.7 |
| 20260506194616 | 51 | 38 | 5.0 | 13.0 | 0.00 | 0.00 | 0.00 | 73 | 1010.6 |
| 20260506193055 | 52 | 28 | 6.0 | 12.0 | 0.00 | 0.00 | 0.00 | 73 | 1010.4 |
| 20260506191552 | 52 | 17 | 5.0 | 10.0 | 0.00 | 0.00 | 0.00 | 71 | 1010.1 |
| 20260506190050 | 53 | 18 | 7.0 | 14.0 | 0.00 | 0.00 | 0.00 | 70 | 1009.9 |
| 20260506184549 | 53 | 9 | 5.0 | 12.0 | 0.00 | 0.00 | 0.00 | 69 | 1009.7 |
| 20260506183101 | 53 | 350 | 4.0 | 10.0 | 0.00 | 0.00 | 0.00 | 69 | 1009.6 |
| 20260506181553 | 53 | 20 | 8.0 | 13.0 | 0.00 | 0.00 | 0.00 | 68 | 1009.4 |
| 20260506180045 | 53 | 32 | 9.0 | 14.0 | 0.00 | 0.00 | 0.00 | 67 | 1009.3 |
| 20260506174543 | 53 | 25 | 7.0 | 15.0 | 0.00 | 0.00 | 0.00 | 67 | 1009.2 |
| 20260506173052 | 54 | 349 | 8.0 | 16.0 | 0.00 | 0.00 | 0.00 | 68 | 1009.0 |
| 20260506171546 | 54 | 21 | 7.0 | 18.0 | 0.00 | 0.00 | 0.00 | 69 | 1008.8 |
| 20260506170046 | 55 | 355 | 8.0 | 16.0 | 0.00 | 0.00 | 0.00 | 69 | 1008.8 |
| 20260506164549 | 56 | 48 | 7.0 | 17.0 | 0.00 | 0.00 | 0.00 | 64 | 1008.7 |
| 20260506163042 | 56 | 346 | 8.0 | 16.0 | 0.00 | 0.00 | 0.00 | 64 | 1008.5 |
| 20260506161546 | 56 | 30 | 5.0 | 13.0 | 0.00 | 0.00 | 0.00 | 67 | 1008.5 |
| 20260506160045 | 55 | 28 | 6.0 | 13.0 | 0.00 | 0.00 | 0.00 | 68 | 1008.5 |
| 20260506154539 | 55 | 44 | 3.0 | 6.0 | 0.00 | 0.00 | 0.00 | 67 | 1008.5 |
| 20260506153038 | 54 | 70 | 5.0 | 10.0 | 0.00 | 0.00 | 0.00 | 64 | 1008.5 |
| 20260506151558 | 54 | 40 | 6.0 | 14.0 | 0.00 | 0.00 | 0.00 | 63 | 1008.5 |
| 20260506150038 | 54 | 120 | 5.0 | 11.0 | 0.00 | 0.00 | 0.00 | 65 | 1008.5 |
| 20260506144537 | 54 | 65 | 5.0 | 18.0 | 0.00 | 0.00 | 0.00 | 63 | 1008.4 |
| 20260506143045 | 55 | 69 | 8.0 | 18.0 | 0.00 | 0.00 | 0.00 | 62 | 1008.5 |
| 20260506141536 | 55 | 36 | 7.0 | 18.0 | 0.00 | 0.00 | 0.00 | 58 | 1008.5 |
| 20260506140038 | 56 | 16 | 8.0 | 16.0 | 0.00 | 0.00 | 0.00 | 54 | 1008.4 |
| 20260506134536 | 56 | 348 | 8.0 | 18.0 | 0.00 | 0.00 | 0.00 | 53 | 1008.3 |
| 20260506133039 | 57 | 67 | 9.0 | 19.0 | 0.00 | 0.00 | 0.00 | 50 | 1008.4 |
| 20260506131536 | 57 | 29 | 8.0 | 18.0 | 0.00 | 0.00 | 0.00 | 48 | 1008.2 |
| 20260506130034 | 58 | 91 | 11.0 | 19.0 | 0.00 | 0.00 | 0.00 | 44 | 1008.2 |
| 20260506124533 | 58 | 51 | 8.0 | 18.0 | 0.00 | 0.00 | 0.00 | 46 | 1008.1 |
| 20260506123031 | 57 | 52 | 9.0 | 19.0 | 0.00 | 0.00 | 0.00 | 46 | 1008.0 |
| 20260506121529 | 57 | 57 | 9.0 | 17.0 | 0.00 | 0.00 | 0.00 | 48 | 1008.0 |
| 20260506120031 | 56 | 16 | 9.0 | 15.0 | 0.00 | 0.00 | 0.00 | 47 | 1007.9 |
| 20260506114538 | 56 | 62 | 7.0 | 15.0 | 0.00 | 0.00 | 0.00 | 51 | 1007.9 |
| 20260506113026 | 56 | 59 | 8.0 | 16.0 | 0.00 | 0.00 | 0.00 | 52 | 1007.9 |
| 20260506111526 | 56 | 57 | 5.0 | 13.0 | 0.00 | 0.00 | 0.00 | 53 | 1007.9 |
| 20260506110029 | 56 | 104 | 6.0 | 16.0 | 0.00 | 0.00 | 0.00 | 53 | 1007.9 |
| 20260506104527 | 56 | 24 | 10.0 | 17.0 | 0.00 | 0.00 | 0.00 | 51 | 1008.0 |
| 20260506103025 | 57 | 55 | 5.0 | 14.0 | 0.00 | 0.00 | 0.00 | 53 | 1007.8 |
| 20260506101542 | 56 | 13 | 8.0 | 20.0 | 0.00 | 0.00 | 0.00 | 53 | 1007.8 |
| 20260506100019 | 55 | 32 | 9.0 | 21.0 | 0.00 | 0.00 | 0.00 | 52 | 1007.7 |
| 20260506094518 | 55 | 40 | 6.0 | 14.0 | 0.00 | 0.00 | 0.00 | 58 | 1007.6 |
| 20260506093015 | 54 | 80 | 8.0 | 16.0 | 0.00 | 0.00 | 0.00 | 62 | 1007.5 |
| 20260506091519 | 54 | 30 | 8.0 | 13.0 | 0.00 | 0.00 | 0.00 | 68 | 1007.6 |
| 20260506090011 | 54 | 5 | 7.0 | 15.0 | 0.00 | 0.00 | 0.00 | 67 | 1007.6 |
| 20260506084517 | 54 | 15 | 8.0 | 16.0 | 0.00 | 0.00 | 0.00 | 68 | 1007.4 |
| 20260506083008 | 53 | 23 | 8.0 | 14.0 | 0.00 | 0.00 | 0.00 | 74 | 1007.4 |
| 20260506081605 | 53 | 26 | 5.0 | 15.0 | 0.00 | 0.00 | 0.00 | 77 | 1007.3 |
| 20260506061516 | 49 | 42 | 8.0 | 14.0 | 0.00 | 0.00 | 0.00 | 89 | 1007.0 |